Terminal Aerodrome Forecast
Issued by NWS

Home | Current Version | Previous Version | Graphics & Text | Print | Product List | Glossary Off
Versions: 1 2 3 4 5 6 7 8 9 10 11 12 13 14 15

000
FTUS43 KMPX 120500
TAFRNH
TAF
KRNH 120524Z 1206/1306 18003KT P6SM SCT030
      TEMPO 1207/1209 4SM BR FEW015 SCT030
     FM120900 VRB02KT 4SM BR BKN015
     FM121000 00000KT 3SM BR OVC010
     FM121300 34002KT 6SM HZ BKN012
     FM121500 32005KT P6SM BKN025 OVC120
     FM121800 29007KT P6SM BKN040 OVC100=

USA.gov is the U.S. government's official web portal to all federal, state and local government web resources and services.